createdAt,value
2022-07-27T00:01:21.835Z,21.70
2022-07-27T00:06:18.104Z,21.70
2022-07-27T00:08:45.978Z,21.60
2022-07-27T00:11:15.388Z,21.60
2022-07-27T00:13:45.007Z,21.60
2022-07-27T00:16:13.003Z,21.60
2022-07-27T00:18:40.948Z,21.50
2022-07-27T00:21:09.109Z,21.50
2022-07-27T00:23:37.022Z,21.40
2022-07-27T00:26:04.891Z,21.30
2022-07-27T00:28:34.458Z,21.30
2022-07-27T00:31:02.335Z,21.30
2022-07-27T00:33:30.760Z,21.20
2022-07-27T00:35:58.927Z,21.20
2022-07-27T00:38:26.895Z,21.20
2022-07-27T00:40:54.779Z,21.10
2022-07-27T00:43:22.554Z,21.10
2022-07-27T00:45:51.789Z,21.10
2022-07-27T00:48:19.833Z,21.00
2022-07-27T00:50:48.202Z,21.00
2022-07-27T00:53:16.811Z,21.00
2022-07-27T00:55:45.674Z,21.00
2022-07-27T00:58:13.797Z,21.00
2022-07-27T01:00:41.639Z,20.90
2022-07-27T01:05:43.086Z,20.80
2022-07-27T01:08:13.655Z,20.80
2022-07-27T01:10:42.420Z,20.80
2022-07-27T01:13:12.790Z,20.80
2022-07-27T01:15:42.025Z,20.80
2022-07-27T01:18:13.777Z,20.80
2022-07-27T01:20:42.228Z,20.80
2022-07-27T01:23:11.647Z,20.80
2022-07-27T01:25:42.603Z,20.80
2022-07-27T01:28:10.807Z,20.70
2022-07-27T01:30:38.607Z,20.70
2022-07-27T01:33:08.453Z,20.60
2022-07-27T01:35:37.256Z,20.60
2022-07-27T01:38:05.643Z,20.50
2022-07-27T01:40:36.636Z,16.10
2022-07-27T01:43:04.992Z,20.40
2022-07-27T01:45:33.074Z,20.40
2022-07-27T01:48:00.964Z,20.40
2022-07-27T01:50:29.772Z,20.40
2022-07-27T01:52:57.601Z,20.30
2022-07-27T01:55:25.497Z,20.30
2022-07-27T01:57:54.714Z,20.30
2022-07-27T02:00:22.561Z,20.30
2022-07-27T02:02:50.418Z,20.40
2022-07-27T02:05:18.377Z,20.30
2022-07-27T02:07:46.289Z,20.30
2022-07-27T02:10:14.148Z,20.30
2022-07-27T02:12:40.988Z,20.30
2022-07-27T02:15:14.804Z,20.20
2022-07-27T02:17:43.878Z,20.20
2022-07-27T02:20:14.205Z,20.20
2022-07-27T02:22:42.436Z,20.20
2022-07-27T02:25:11.799Z,20.20
2022-07-27T02:27:39.999Z,20.10
2022-07-27T02:30:10.545Z,20.20
2022-07-27T02:32:38.450Z,20.10
2022-07-27T02:35:19.040Z,20.10
2022-07-27T02:37:48.657Z,20.10
2022-07-27T02:40:17.855Z,20.00
2022-07-27T02:42:46.014Z,20.00
2022-07-27T02:45:16.165Z,20.00
2022-07-27T02:47:44.061Z,20.00
2022-07-27T02:50:12.313Z,20.00
2022-07-27T02:52:40.555Z,19.90
2022-07-27T02:55:09.698Z,19.90
2022-07-27T02:57:40.754Z,19.80
2022-07-27T03:00:11.319Z,19.80
2022-07-27T03:02:41.217Z,19.80
2022-07-27T03:05:11.649Z,19.70
2022-07-27T03:07:39.846Z,19.70
2022-07-27T03:10:08.961Z,19.70
2022-07-27T03:12:36.786Z,19.60
2022-07-27T03:15:05.602Z,19.60
2022-07-27T03:17:33.821Z,19.60
2022-07-27T03:20:03.150Z,19.60
2022-07-27T03:22:32.549Z,19.60
2022-07-27T03:25:00.504Z,19.60
2022-07-27T03:27:29.093Z,19.60
2022-07-27T03:29:57.136Z,19.60
2022-07-27T03:32:25.194Z,19.60
2022-07-27T03:34:53.407Z,19.50
2022-07-27T03:39:50.770Z,19.50
2022-07-27T03:42:18.590Z,19.60
2022-07-27T03:44:46.536Z,19.60
2022-07-27T03:47:14.378Z,19.50
2022-07-27T03:49:42.196Z,19.50
2022-07-27T03:52:13.074Z,19.50
2022-07-27T03:54:46.846Z,19.40
2022-07-27T03:57:15.114Z,19.40
2022-07-27T03:59:42.968Z,19.40
2022-07-27T04:02:10.812Z,19.40
2022-07-27T04:04:39.189Z,19.40
2022-07-27T04:07:06.955Z,19.40
2022-07-27T04:09:35.966Z,19.40
2022-07-27T04:12:05.700Z,19.30
2022-07-27T04:14:33.992Z,19.30
2022-07-27T04:17:02.074Z,19.30
2022-07-27T04:19:30.077Z,19.20
2022-07-27T04:21:58.164Z,19.20
2022-07-27T04:24:26.267Z,19.20
2022-07-27T04:26:54.098Z,19.20
2022-07-27T04:29:23.691Z,19.20
2022-07-27T04:31:52.130Z,19.10
2022-07-27T04:36:54.696Z,19.00
2022-07-27T04:39:22.460Z,19.00
2022-07-27T04:41:50.344Z,19.00
2022-07-27T04:44:18.125Z,19.00
2022-07-27T04:46:47.872Z,19.00
2022-07-27T04:49:16.347Z,19.00
2022-07-27T04:51:45.544Z,19.00
2022-07-27T04:54:14.031Z,19.00
2022-07-27T04:56:41.920Z,19.00
2022-07-27T04:59:10.320Z,19.00
2022-07-27T05:14:47.489Z,19.20
2022-07-27T05:17:15.429Z,19.00
2022-07-27T05:22:11.484Z,19.00
2022-07-27T05:24:39.487Z,18.90
2022-07-27T05:27:07.529Z,19.00
2022-07-27T05:29:35.488Z,19.00
2022-07-27T05:34:33.275Z,19.10
2022-07-27T05:37:01.213Z,19.00
2022-07-27T05:39:29.503Z,19.10
2022-07-27T05:41:57.498Z,19.10
2022-07-27T05:44:25.360Z,19.10
2022-07-27T05:46:53.209Z,19.10
2022-07-27T05:49:22.653Z,19.10
2022-07-27T05:51:50.803Z,19.10
2022-07-27T05:54:19.265Z,19.10
2022-07-27T05:56:47.721Z,19.10
2022-07-27T06:01:43.959Z,19.10
2022-07-27T06:04:14.419Z,19.10
2022-07-27T06:07:01.704Z,19.20
2022-07-27T06:09:29.621Z,19.20
2022-07-27T06:11:57.518Z,19.30
2022-07-27T06:14:25.443Z,19.20
2022-07-27T06:16:53.496Z,19.20
2022-07-27T06:19:21.522Z,19.20
2022-07-27T06:21:53.865Z,19.20
2022-07-27T06:24:22.431Z,19.20
2022-07-27T06:26:50.335Z,19.20
2022-07-27T06:29:18.206Z,19.20
2022-07-27T06:31:46.656Z,19.40
2022-07-27T06:34:14.833Z,19.40
2022-07-27T06:36:45.009Z,19.50
2022-07-27T06:41:43.156Z,19.60
2022-07-27T06:44:10.959Z,19.60
2022-07-27T06:46:38.982Z,19.60
2022-07-27T06:49:06.909Z,19.60
2022-07-27T06:51:34.808Z,19.50
2022-07-27T06:54:05.412Z,19.50
2022-07-27T06:56:34.782Z,19.50
2022-07-27T06:59:02.747Z,19.50
2022-07-27T07:01:30.770Z,19.50
2022-07-27T07:06:27.918Z,19.60
2022-07-27T07:08:55.814Z,19.60
2022-07-27T07:13:53.436Z,19.70
2022-07-27T07:16:21.413Z,19.70
2022-07-27T07:18:52.404Z,19.70
2022-07-27T07:21:20.493Z,19.70
2022-07-27T07:23:48.394Z,19.70
2022-07-27T07:26:16.234Z,19.70
2022-07-27T07:28:44.240Z,19.70
2022-07-27T07:31:20.547Z,19.70
2022-07-27T07:33:51.742Z,19.70
2022-07-27T07:36:20.815Z,19.80
2022-07-27T07:38:54.970Z,19.90
2022-07-27T07:43:59.260Z,20.00
2022-07-27T07:46:36.049Z,20.00
2022-07-27T07:49:04.687Z,20.10
2022-07-27T07:51:33.115Z,20.10
2022-07-27T07:54:01.026Z,20.10
2022-07-27T07:56:28.913Z,20.10
2022-07-27T07:58:56.707Z,20.20
2022-07-27T08:01:26.014Z,20.20
2022-07-27T08:03:55.441Z,20.20
2022-07-27T08:06:23.355Z,20.20
2022-07-27T08:08:51.253Z,20.20
2022-07-27T08:11:19.290Z,20.20
2022-07-27T08:13:47.237Z,20.20
2022-07-27T08:16:15.289Z,20.30
2022-07-27T08:18:43.225Z,18.50
2022-07-27T08:21:12.378Z,20.30
2022-07-27T08:23:40.229Z,20.30
2022-07-27T08:26:08.375Z,20.40
2022-07-27T08:28:36.842Z,20.40
2022-07-27T08:31:14.201Z,20.30
2022-07-27T08:36:12.277Z,20.40
2022-07-27T08:38:40.187Z,20.50
2022-07-27T08:41:09.050Z,20.60
2022-07-27T08:43:37.408Z,20.60
2022-07-27T08:46:05.403Z,20.60
2022-07-27T08:48:33.388Z,20.70
2022-07-27T08:51:01.429Z,20.80
2022-07-27T08:53:52.514Z,20.80
2022-07-27T08:56:21.836Z,20.80
2022-07-27T08:58:49.943Z,20.90
2022-07-27T09:01:17.925Z,20.90
2022-07-27T09:03:46.041Z,20.90
2022-07-27T09:06:13.994Z,20.90
2022-07-27T09:08:48.776Z,20.90
2022-07-27T09:11:21.149Z,20.90
2022-07-27T09:13:49.143Z,21.00
2022-07-27T09:16:19.352Z,21.10
2022-07-27T09:23:54.867Z,21.30
2022-07-27T09:26:33.889Z,21.30
2022-07-27T09:29:03.965Z,21.30
2022-07-27T09:31:33.295Z,21.40
2022-07-27T09:34:03.358Z,21.50
2022-07-27T09:36:32.114Z,21.60
2022-07-27T09:39:05.384Z,21.60
2022-07-27T09:41:45.956Z,21.70
2022-07-27T09:44:32.295Z,21.70
2022-07-27T09:47:01.241Z,21.80
2022-07-27T09:49:31.250Z,21.70
2022-07-27T09:52:01.709Z,21.80
2022-07-27T09:54:43.291Z,21.80
2022-07-27T09:57:11.137Z,21.90
2022-07-27T09:59:38.966Z,21.80
2022-07-27T10:02:06.975Z,21.80
2022-07-27T10:04:35.079Z,21.90
2022-07-27T10:07:07.124Z,21.90
2022-07-27T10:09:38.808Z,21.90
2022-07-27T10:12:07.411Z,22.00
2022-07-27T10:14:36.155Z,22.00
2022-07-27T10:17:04.220Z,22.10
2022-07-27T10:19:45.067Z,22.20
2022-07-27T10:22:13.043Z,22.20
2022-07-27T10:24:42.279Z,22.20
2022-07-27T10:27:21.213Z,22.40
2022-07-27T10:29:49.439Z,22.60
2022-07-27T10:32:25.033Z,22.70
2022-07-27T10:34:53.363Z,22.70
2022-07-27T10:37:26.438Z,22.70
2022-07-27T10:40:11.879Z,22.70
2022-07-27T10:42:41.091Z,22.60
2022-07-27T10:45:11.025Z,22.50
2022-07-27T10:47:42.442Z,22.50
2022-07-27T10:50:29.732Z,22.60
2022-07-27T10:52:59.792Z,22.70
2022-07-27T10:55:51.488Z,22.90
2022-07-27T10:58:44.307Z,22.90
2022-07-27T11:01:14.743Z,23.00
2022-07-27T11:03:52.283Z,23.20
2022-07-27T11:06:37.533Z,23.20
2022-07-27T11:12:06.579Z,23.50
2022-07-27T11:14:46.081Z,23.50
2022-07-27T11:20:03.300Z,23.30
2022-07-27T11:23:09.083Z,23.30
2022-07-27T11:25:20.675Z,23.30
2022-07-27T11:27:51.585Z,23.40
2022-07-27T11:30:24.597Z,23.50
2022-07-27T11:32:52.610Z,23.80
2022-07-27T11:35:20.637Z,23.80
2022-07-27T11:37:59.929Z,23.90
2022-07-27T11:40:56.191Z,23.90
2022-07-27T11:43:37.117Z,24.00
2022-07-27T11:46:13.610Z,24.00
2022-07-27T11:49:05.535Z,24.20
2022-07-27T11:51:35.317Z,24.30
2022-07-27T11:54:05.158Z,24.40
2022-07-27T11:56:34.746Z,24.50
2022-07-27T11:59:11.599Z,24.40
2022-07-27T12:01:42.208Z,24.20
2022-07-27T12:04:22.133Z,24.20
2022-07-27T12:07:01.035Z,24.10
2022-07-27T12:09:38.328Z,24.00
2022-07-27T12:12:15.112Z,24.20
2022-07-27T12:14:46.740Z,24.20
2022-07-27T12:17:27.018Z,24.50
2022-07-27T12:20:01.354Z,24.70
2022-07-27T12:22:32.610Z,24.80
2022-07-27T12:25:02.063Z,24.80
2022-07-27T12:27:30.481Z,24.80
2022-07-27T12:30:06.721Z,24.70
2022-07-27T12:32:37.415Z,24.50
2022-07-27T12:35:21.795Z,24.30
2022-07-27T12:37:56.469Z,24.30
2022-07-27T12:40:24.344Z,24.20
2022-07-27T12:42:58.009Z,24.00
2022-07-27T12:45:31.836Z,24.00
2022-07-27T12:50:38.376Z,24.00
2022-07-27T12:53:06.367Z,24.10
2022-07-27T12:55:34.511Z,24.10
2022-07-27T12:58:02.531Z,24.10
2022-07-27T13:00:33.964Z,24.20
2022-07-27T13:03:03.450Z,24.30
2022-07-27T13:05:32.535Z,24.30
2022-07-27T13:08:00.481Z,24.40
2022-07-27T13:10:28.662Z,24.60
2022-07-27T13:12:56.908Z,25.00
2022-07-27T13:15:25.003Z,25.00
2022-07-27T13:17:54.272Z,25.10
2022-07-27T13:20:22.771Z,25.30
2022-07-27T13:22:50.739Z,25.40
2022-07-27T13:25:18.982Z,25.30
2022-07-27T13:27:48.031Z,25.40
2022-07-27T13:30:17.392Z,25.50
2022-07-27T13:32:46.567Z,24.80
2022-07-27T13:35:17.495Z,25.30
2022-07-27T13:37:45.785Z,25.20
2022-07-27T13:40:14.713Z,25.30
2022-07-27T13:42:42.617Z,25.40
2022-07-27T13:45:12.241Z,25.40
2022-07-27T13:47:41.604Z,25.50
2022-07-27T13:50:17.933Z,25.50
2022-07-27T13:52:48.879Z,25.40
2022-07-27T13:55:17.458Z,25.40
2022-07-27T13:57:45.870Z,25.40
2022-07-27T14:00:15.107Z,25.50
2022-07-27T14:02:43.210Z,25.50
2022-07-27T14:05:13.248Z,25.50
2022-07-27T14:07:42.408Z,25.60
2022-07-27T14:10:30.352Z,25.50
2022-07-27T14:13:01.969Z,25.50
2022-07-27T14:15:50.756Z,25.50
2022-07-27T14:18:24.008Z,25.40
2022-07-27T14:20:52.019Z,25.40
2022-07-27T14:23:19.947Z,25.50
2022-07-27T14:25:49.150Z,25.50
2022-07-27T14:28:17.112Z,25.50
2022-07-27T14:30:44.977Z,25.50
2022-07-27T14:33:13.024Z,25.50
2022-07-27T14:35:41.227Z,25.50
2022-07-27T14:38:09.530Z,25.70
2022-07-27T14:40:37.660Z,25.80
2022-07-27T14:43:07.273Z,25.80
2022-07-27T14:45:45.043Z,25.80
2022-07-27T14:48:21.452Z,25.80
2022-07-27T14:50:50.997Z,25.90
2022-07-27T14:53:18.931Z,25.90
2022-07-27T14:55:46.724Z,26.10
2022-07-27T14:58:16.047Z,26.20
2022-07-27T15:00:43.925Z,26.30
2022-07-27T15:03:14.759Z,26.30
2022-07-27T15:05:49.486Z,26.30
2022-07-27T15:08:18.900Z,26.40
2022-07-27T15:10:47.217Z,26.30
2022-07-27T15:13:16.693Z,26.30
2022-07-27T15:15:44.674Z,26.20
2022-07-27T15:18:12.461Z,26.10
2022-07-27T15:20:40.346Z,26.10
2022-07-27T15:25:36.729Z,26.20
2022-07-27T15:28:05.061Z,26.20
2022-07-27T15:30:38.358Z,26.10
2022-07-27T15:33:07.061Z,26.10
2022-07-27T15:35:34.967Z,26.00
2022-07-27T15:38:03.263Z,26.00
2022-07-27T15:40:41.387Z,25.60
2022-07-27T15:43:11.800Z,25.60
2022-07-27T15:45:42.196Z,25.30
2022-07-27T15:48:11.966Z,25.40
2022-07-27T15:50:41.869Z,25.90
2022-07-27T15:53:10.983Z,25.90
2022-07-27T15:55:39.149Z,26.20
2022-07-27T15:58:08.568Z,26.40
2022-07-27T16:00:40.714Z,26.80
2022-07-27T16:03:10.899Z,26.80
2022-07-27T16:05:40.910Z,27.00
2022-07-27T16:08:09.843Z,27.10
2022-07-27T16:10:38.927Z,27.40
2022-07-27T16:13:07.275Z,27.40
2022-07-27T16:18:23.135Z,27.70
2022-07-27T16:20:51.590Z,27.20
2022-07-27T16:23:21.415Z,27.70
2022-07-27T16:26:03.920Z,27.80
2022-07-27T16:28:33.944Z,27.90
2022-07-27T16:31:02.025Z,27.90
2022-07-27T16:33:31.471Z,27.90
2022-07-27T16:35:59.645Z,27.80
2022-07-27T16:38:27.488Z,27.60
2022-07-27T16:40:55.418Z,27.30
2022-07-27T16:43:23.350Z,27.30
2022-07-27T16:46:04.625Z,27.30
2022-07-27T16:48:41.809Z,27.40
2022-07-27T16:51:11.740Z,27.40
2022-07-27T16:53:40.927Z,27.30
2022-07-27T16:56:09.277Z,27.30
2022-07-27T16:58:37.726Z,27.30
2022-07-27T17:01:06.127Z,27.40
2022-07-27T17:03:35.296Z,27.50
2022-07-27T17:06:06.339Z,27.60
2022-07-27T17:08:34.839Z,27.80
2022-07-27T17:11:02.856Z,27.60
2022-07-27T17:13:33.808Z,27.50
2022-07-27T17:16:02.916Z,27.50
2022-07-27T17:18:35.521Z,27.60
2022-07-27T17:21:09.518Z,27.90
2022-07-27T17:23:38.811Z,27.90
2022-07-27T17:26:08.208Z,28.00
2022-07-27T17:28:39.037Z,28.00
2022-07-27T17:31:09.505Z,28.30
2022-07-27T17:33:37.935Z,28.30
2022-07-27T17:36:09.696Z,28.60
2022-07-27T17:38:44.206Z,29.20
2022-07-27T17:41:12.807Z,29.70
2022-07-27T17:43:40.736Z,29.60
2022-07-27T17:46:11.236Z,29.60
2022-07-27T17:48:39.979Z,29.80
2022-07-27T17:51:10.347Z,30.30
2022-07-27T17:53:38.519Z,30.40
2022-07-27T17:56:08.452Z,30.50
2022-07-27T17:58:37.483Z,30.70
2022-07-27T18:01:06.190Z,31.20
2022-07-27T18:03:34.769Z,31.10
2022-07-27T18:06:02.667Z,31.10
2022-07-27T18:08:30.645Z,31.30
2022-07-27T18:10:58.608Z,31.10
2022-07-27T18:13:39.064Z,31.00
2022-07-27T18:16:09.058Z,30.40
2022-07-27T18:18:37.364Z,29.80
2022-07-27T18:21:05.339Z,29.20
2022-07-27T18:23:33.168Z,28.60
2022-07-27T18:26:01.087Z,29.10
2022-07-27T18:28:33.448Z,29.10
2022-07-27T18:31:05.458Z,29.40
2022-07-27T18:33:36.306Z,29.50
2022-07-27T18:36:06.134Z,29.40
2022-07-27T18:38:34.195Z,29.20
2022-07-27T18:41:02.781Z,28.50
2022-07-27T18:43:32.035Z,28.30
2022-07-27T18:45:59.930Z,27.60
2022-07-27T18:48:28.711Z,26.60
2022-07-27T18:50:57.296Z,26.20
2022-07-27T18:53:25.391Z,25.80
2022-07-27T18:55:56.441Z,25.80
2022-07-27T18:58:25.164Z,25.60
2022-07-27T19:00:55.087Z,25.10
2022-07-27T19:03:24.593Z,25.00
2022-07-27T19:05:55.642Z,24.80
2022-07-27T19:08:23.972Z,24.60
2022-07-27T19:10:52.327Z,24.30
2022-07-27T19:13:20.244Z,24.30
2022-07-27T19:15:48.041Z,24.20
2022-07-27T19:18:17.281Z,24.00
2022-07-27T19:20:45.093Z,23.90
2022-07-27T19:25:41.480Z,23.70
2022-07-27T19:28:09.304Z,23.50
2022-07-27T19:30:38.634Z,23.30
2022-07-27T19:33:06.853Z,23.30
2022-07-27T19:35:36.058Z,23.10
2022-07-27T19:38:03.945Z,23.10
2022-07-27T19:40:47.189Z,22.90
2022-07-27T19:43:16.396Z,22.90
2022-07-27T19:45:44.619Z,22.90
2022-07-27T19:48:13.107Z,22.80
2022-07-27T19:50:43.177Z,22.70
2022-07-27T19:53:11.115Z,22.70
2022-07-27T19:55:39.028Z,22.50
2022-07-27T19:58:06.963Z,22.40
2022-07-27T20:00:35.064Z,22.30
2022-07-27T20:03:03.241Z,22.20
2022-07-27T20:05:31.430Z,22.10
2022-07-27T20:08:00.619Z,22.00
2022-07-27T20:10:28.623Z,21.90
2022-07-27T20:12:56.528Z,21.90
2022-07-27T20:15:24.341Z,21.90
2022-07-27T20:17:52.579Z,21.80
2022-07-27T20:20:20.496Z,21.70
2022-07-27T20:22:48.559Z,21.70
2022-07-27T20:25:18.455Z,21.60
2022-07-27T20:27:46.860Z,21.60
2022-07-27T20:30:17.093Z,21.60
2022-07-27T20:32:45.884Z,21.50
2022-07-27T20:35:14.058Z,21.60
2022-07-27T20:37:42.049Z,21.60
2022-07-27T20:40:11.810Z,21.60
2022-07-27T20:42:41.815Z,21.40
2022-07-27T20:45:12.639Z,21.30
2022-07-27T20:47:40.783Z,21.20
2022-07-27T20:50:13.082Z,21.10
2022-07-27T20:52:41.964Z,21.00
2022-07-27T20:55:11.130Z,21.00
2022-07-27T20:57:39.334Z,21.00
2022-07-27T21:00:11.467Z,20.90
2022-07-27T21:02:40.898Z,20.90
2022-07-27T21:05:09.858Z,20.80
2022-07-27T21:07:38.974Z,20.80
2022-07-27T21:10:08.359Z,20.70
2022-07-27T21:12:36.149Z,20.70
2022-07-27T21:15:05.773Z,20.60
2022-07-27T21:17:37.818Z,20.60
2022-07-27T21:20:15.035Z,20.60
2022-07-27T21:22:43.662Z,20.50
2022-07-27T21:25:11.420Z,20.50
2022-07-27T21:27:42.277Z,20.50
2022-07-27T21:30:13.632Z,20.50
2022-07-27T21:32:42.841Z,20.50
2022-07-27T21:35:10.920Z,20.40
2022-07-27T21:37:38.702Z,20.30
2022-07-27T21:40:07.340Z,20.30
2022-07-27T21:42:35.239Z,20.30
2022-07-27T21:45:03.119Z,20.30
2022-07-27T21:47:32.800Z,20.20
2022-07-27T21:50:02.028Z,20.20
2022-07-27T21:54:58.027Z,20.10
2022-07-27T21:57:26.009Z,20.10
2022-07-27T21:59:53.844Z,20.00
2022-07-27T22:02:21.767Z,20.00
2022-07-27T22:04:49.755Z,20.00
2022-07-27T22:07:19.253Z,20.00
2022-07-27T22:09:47.475Z,20.00
2022-07-27T22:12:15.478Z,19.90
2022-07-27T22:14:43.361Z,19.80
2022-07-27T22:17:11.241Z,19.80
2022-07-27T22:19:39.082Z,19.80
2022-07-27T22:22:07.034Z,19.70
2022-07-27T22:24:36.229Z,19.60
2022-07-27T22:27:04.337Z,19.60
2022-07-27T22:29:34.724Z,19.60
2022-07-27T22:32:02.743Z,19.50
2022-07-27T22:34:30.610Z,19.50
2022-07-27T22:36:58.394Z,19.40
2022-07-27T22:39:26.196Z,19.40
2022-07-27T22:41:55.432Z,19.40
2022-07-27T22:44:23.341Z,19.30
2022-07-27T22:46:51.197Z,19.40
2022-07-27T22:51:49.717Z,19.30
2022-07-27T22:54:20.789Z,19.30
2022-07-27T22:56:48.701Z,19.30
2022-07-27T22:59:17.836Z,19.20
2022-07-27T23:01:48.024Z,19.20
2022-07-27T23:04:17.938Z,19.20
2022-07-27T23:06:47.009Z,19.20
2022-07-27T23:09:15.389Z,19.20
2022-07-27T23:11:44.070Z,19.10
2022-07-27T23:14:12.356Z,19.10
2022-07-27T23:16:41.930Z,19.10
2022-07-27T23:19:10.300Z,19.10
2022-07-27T23:21:39.387Z,19.00
2022-07-27T23:24:07.789Z,19.00
2022-07-27T23:26:37.904Z,18.90
2022-07-27T23:29:05.693Z,18.90
2022-07-27T23:31:33.758Z,18.80
2022-07-27T23:34:02.976Z,18.80
2022-07-27T23:36:30.908Z,18.80
2022-07-27T23:38:58.774Z,18.70
2022-07-27T23:41:26.757Z,18.70
2022-07-27T23:43:54.598Z,18.70
2022-07-27T23:46:22.434Z,18.60
2022-07-27T23:48:50.375Z,18.60
2022-07-27T23:51:20.652Z,18.60
2022-07-27T23:53:48.771Z,18.60
2022-07-27T23:56:16.885Z,18.50
2022-07-27T23:58:45.803Z,18.50
